Time;durP1;ratioP1;P1;durP2;ratioP2;P2;SDS_P1;SDS_P2;PMS_P1;PMS_P2;Temp;Humidity;BMP_temperature;BMP_pressure;BME280_temperature;BME280_humidity;BME280_pressure;Samples;Min_cycle;Max_cycle;Signal;HPM_P1;HPM_P2
2022/12/30 00:01:31;;;;;;;0.40;0.40;;;;;;;;;;5137449;27;20304;-60
2022/12/30 00:03:59;;;;;;;1.08;0.52;;;;;;;;;;5137327;27;20496;-60
2022/12/30 00:06:28;;;;;;;0.90;0.50;;;;;;;;;;5136864;27;20202;-60
2022/12/30 00:08:57;;;;;;;0.98;0.50;;;;;;;;;;5136957;28;20313;-60
2022/12/30 00:11:25;;;;;;;0.60;0.40;;;;;;;;;;5137142;28;20296;-60
2022/12/30 00:33:41;;;;;;;0.43;0.30;;;;;;;;;;5137221;28;20193;-60
2022/12/30 00:36:08;;;;;;;0.88;0.50;;;;;;;;;;5137340;28;20446;-60
2022/12/30 00:38:37;;;;;;;0.65;0.60;;;;;;;;;;5137144;28;20202;-60
2022/12/30 00:43:50;;;;;;;0.90;0.55;;;;;;;;;;5136773;28;20205;-60
2022/12/30 00:46:18;;;;;;;0.63;0.50;;;;;;;;;;5136922;28;20207;-60
2022/12/30 00:57:03;;;;;;;1.08;0.47;;;;;;;;;;5137574;27;20194;-60
2022/12/30 00:59:31;;;;;;;0.47;0.40;;;;;;;;;;5139586;27;20234;-60
2022/12/30 01:01:59;;;;;;;0.40;0.38;;;;;;;;;;5140548;27;20202;-60
2022/12/30 01:04:26;;;;;;;0.80;0.50;;;;;;;;;;5140477;27;20208;-60
2022/12/30 01:06:54;;;;;;;0.55;0.47;;;;;;;;;;5140601;27;20210;-60
2022/12/30 01:09:24;;;;;;;0.93;0.50;;;;;;;;;;5140674;27;20261;-60
2022/12/30 01:14:33;;;;;;;0.40;0.40;;;;;;;;;;5139002;27;20479;-60
2022/12/30 01:17:01;;;;;;;0.80;0.52;;;;;;;;;;5139898;27;20216;-60
2022/12/30 01:19:29;;;;;;;0.80;0.40;;;;;;;;;;5140311;27;20298;-60
2022/12/30 01:21:56;;;;;;;0.55;0.45;;;;;;;;;;5139352;27;20562;-60
2022/12/30 01:24:26;;;;;;;0.50;0.50;;;;;;;;;;5140377;27;20493;-60
2022/12/30 01:26:53;;;;;;;0.75;0.40;;;;;;;;;;5140557;27;20203;-60
2022/12/30 01:29:22;;;;;;;0.60;0.40;;;;;;;;;;5140519;27;20263;-61
2022/12/30 01:31:50;;;;;;;0.65;0.50;;;;;;;;;;5140747;27;20391;-60
2022/12/30 01:34:18;;;;;;;0.43;0.35;;;;;;;;;;5140365;27;20233;-60
2022/12/30 01:36:46;;;;;;;0.40;0.40;;;;;;;;;;5139848;27;20202;-60
2022/12/30 01:39:13;;;;;;;0.88;0.60;;;;;;;;;;5140251;27;20224;-60
2022/12/30 01:41:43;;;;;;;0.40;0.38;;;;;;;;;;5140543;27;20267;-60
2022/12/30 01:44:25;;;;;;;0.50;0.30;;;;;;;;;;5139658;27;20202;-60
2022/12/30 01:46:52;;;;;;;0.43;0.30;;;;;;;;;;5139454;27;20227;-60
2022/12/30 01:49:20;;;;;;;0.93;0.50;;;;;;;;;;5139608;27;20225;-60
2022/12/30 01:51:48;;;;;;;0.32;0.32;;;;;;;;;;5139567;27;20600;-60
2022/12/30 01:54:16;;;;;;;0.55;0.40;;;;;;;;;;5139254;27;20462;-60
2022/12/30 01:56:45;;;;;;;0.40;0.40;;;;;;;;;;5139726;27;20206;-60
2022/12/30 01:59:15;;;;;;;0.47;0.40;;;;;;;;;;5140237;27;20233;-60
2022/12/30 02:01:43;;;;;;;0.65;0.40;;;;;;;;;;5140390;27;20201;-60
2022/12/30 02:04:14;;;;;;;0.65;0.50;;;;;;;;;;5140415;27;20565;-60
2022/12/30 02:06:47;;;;;;;0.77;0.60;;;;;;;;;;5140343;27;20209;-60
2022/12/30 02:09:15;;;;;;;0.90;0.50;;;;;;;;;;5139733;27;20570;-60
2022/12/30 02:11:42;;;;;;;0.60;0.57;;;;;;;;;;5140501;27;20223;-61
2022/12/30 02:14:12;;;;;;;0.70;0.47;;;;;;;;;;5140390;27;20213;-61
2022/12/30 02:16:45;;;;;;;0.80;0.63;;;;;;;;;;5140119;27;20212;-60
2022/12/30 02:19:28;;;;;;;0.60;0.50;;;;;;;;;;5140163;27;20202;-60
2022/12/30 02:22:01;;;;;;;0.73;0.52;;;;;;;;;;5123546;27;20600;-60
2022/12/30 02:24:47;;;;;;;0.50;0.50;;;;;;;;;;5140095;27;20296;-60
2022/12/30 02:27:21;;;;;;;0.73;0.57;;;;;;;;;;5139829;27;20213;-60
2022/12/30 02:30:09;;;;;;;0.52;0.40;;;;;;;;;;5140171;27;20222;-60
2022/12/30 02:32:43;;;;;;;0.40;0.40;;;;;;;;;;5140007;27;20592;-60
2022/12/30 02:35:17;;;;;;;0.77;0.50;;;;;;;;;;5139978;27;20208;-60
2022/12/30 02:37:48;;;;;;;0.50;0.50;;;;;;;;;;5139615;27;20202;-60
2022/12/30 02:40:18;;;;;;;0.50;0.40;;;;;;;;;;5139751;27;20202;-60
2022/12/30 02:45:36;;;;;;;0.60;0.40;;;;;;;;;;5138795;27;20193;-60
2022/12/30 02:48:08;;;;;;;0.43;0.43;;;;;;;;;;5139512;27;20206;-60
2022/12/30 02:53:24;;;;;;;0.90;0.60;;;;;;;;;;5139397;27;20193;-60
2022/12/30 02:55:53;;;;;;;0.45;0.40;;;;;;;;;;5139381;27;20213;-60
2022/12/30 02:58:21;;;;;;;0.47;0.47;;;;;;;;;;5138664;27;20230;-60
2022/12/30 03:03:59;;;;;;;0.45;0.45;;;;;;;;;;5139427;27;20520;-60
2022/12/30 03:06:32;;;;;;;1.05;0.60;;;;;;;;;;5139229;27;20202;-60
2022/12/30 03:09:03;;;;;;;0.40;0.35;;;;;;;;;;5139217;27;20208;-60
2022/12/30 03:11:38;;;;;;;0.70;0.50;;;;;;;;;;5138949;27;20321;-60
2022/12/30 03:14:09;;;;;;;0.55;0.50;;;;;;;;;;5138771;27;20485;-60
2022/12/30 03:16:37;;;;;;;0.60;0.45;;;;;;;;;;5138509;27;20555;-60
2022/12/30 03:19:08;;;;;;;0.50;0.50;;;;;;;;;;5138978;27;20202;-60
2022/12/30 03:21:38;;;;;;;0.47;0.30;;;;;;;;;;5137868;27;20250;-60
2022/12/30 03:27:05;;;;;;;1.20;0.38;;;;;;;;;;5138373;27;20194;-60
2022/12/30 03:29:35;;;;;;;0.55;0.40;;;;;;;;;;5138537;27;20208;-60
2022/12/30 03:32:04;;;;;;;0.75;0.50;;;;;;;;;;5138539;27;20666;-61
2022/12/30 03:34:33;;;;;;;0.50;0.50;;;;;;;;;;5138021;27;20269;-60
2022/12/30 03:37:05;;;;;;;0.82;0.50;;;;;;;;;;5138049;27;20257;-60
2022/12/30 03:39:34;;;;;;;0.40;0.30;;;;;;;;;;5138712;27;20649;-60
2022/12/30 03:42:04;;;;;;;0.77;0.50;;;;;;;;;;5138411;27;20247;-60
2022/12/30 03:44:33;;;;;;;0.80;0.55;;;;;;;;;;5138662;27;20586;-60
2022/12/30 03:47:01;;;;;;;1.00;0.50;;;;;;;;;;5138095;27;20203;-60
2022/12/30 03:49:28;;;;;;;0.63;0.40;;;;;;;;;;5138768;27;20213;-60
2022/12/30 03:51:58;;;;;;;0.55;0.50;;;;;;;;;;5138297;27;20265;-60
2022/12/30 03:54:26;;;;;;;0.57;0.30;;;;;;;;;;5138745;27;20212;-60
2022/12/30 03:56:53;;;;;;;0.55;0.40;;;;;;;;;;5138541;27;20296;-60
2022/12/30 03:59:21;;;;;;;0.30;0.30;;;;;;;;;;5138116;27;20234;-60
2022/12/30 04:01:49;;;;;;;0.60;0.40;;;;;;;;;;5138346;27;20252;-60
2022/12/30 04:04:19;;;;;;;0.63;0.45;;;;;;;;;;5139023;27;20506;-60
2022/12/30 04:06:46;;;;;;;0.47;0.40;;;;;;;;;;5138119;27;20477;-60
2022/12/30 04:09:16;;;;;;;0.80;0.60;;;;;;;;;;5138324;27;20202;-60
2022/12/30 04:11:43;;;;;;;0.47;0.47;;;;;;;;;;5138675;28;20325;-60
2022/12/30 04:14:11;;;;;;;0.50;0.50;;;;;;;;;;5138483;28;20309;-60
2022/12/30 04:16:39;;;;;;;0.50;0.40;;;;;;;;;;5138229;28;20210;-60
2022/12/30 04:19:07;;;;;;;0.77;0.52;;;;;;;;;;5138239;28;20202;-60
2022/12/30 04:21:35;;;;;;;0.50;0.40;;;;;;;;;;5137870;28;20241;-60
2022/12/30 04:24:02;;;;;;;0.60;0.32;;;;;;;;;;5137968;28;20206;-60
2022/12/30 04:26:31;;;;;;;1.08;0.50;;;;;;;;;;5137457;28;20289;-60
2022/12/30 04:28:59;;;;;;;0.95;0.60;;;;;;;;;;5138067;28;20202;-60
2022/12/30 04:31:27;;;;;;;0.60;0.50;;;;;;;;;;5137903;28;20230;-60
2022/12/30 04:33:55;;;;;;;0.90;0.40;;;;;;;;;;5141700;27;20213;-60
2022/12/30 04:36:23;;;;;;;0.77;0.40;;;;;;;;;;5141857;27;20198;-61
2022/12/30 04:38:51;;;;;;;0.95;0.40;;;;;;;;;;5141660;27;20202;-61
2022/12/30 04:41:20;;;;;;;0.40;0.32;;;;;;;;;;5141873;27;20638;-61
2022/12/30 04:43:49;;;;;;;0.85;0.43;;;;;;;;;;5141595;27;20216;-60
2022/12/30 04:46:17;;;;;;;0.50;0.40;;;;;;;;;;5141594;27;20597;-60
2022/12/30 04:48:44;;;;;;;1.00;0.60;;;;;;;;;;5141200;27;20212;-60
2022/12/30 04:51:12;;;;;;;0.50;0.32;;;;;;;;;;5141594;27;20222;-60
2022/12/30 04:53:40;;;;;;;0.65;0.40;;;;;;;;;;5141082;27;20205;-60
2022/12/30 04:56:08;;;;;;;0.95;0.40;;;;;;;;;;5141508;27;20275;-60
2022/12/30 04:58:36;;;;;;;0.47;0.47;;;;;;;;;;5140970;27;20320;-60
2022/12/30 05:01:04;;;;;;;0.60;0.35;;;;;;;;;;5141578;27;20206;-60
2022/12/30 05:03:32;;;;;;;0.50;0.40;;;;;;;;;;5141289;27;20300;-60
2022/12/30 05:05:59;;;;;;;0.60;0.45;;;;;;;;;;5141487;27;20309;-60
2022/12/30 05:08:27;;;;;;;0.50;0.38;;;;;;;;;;5141721;27;20304;-60
2022/12/30 05:10:54;;;;;;;0.90;0.63;;;;;;;;;;5140455;27;20336;-60
2022/12/30 05:13:22;;;;;;;0.70;0.50;;;;;;;;;;5141254;27;20203;-60
2022/12/30 05:15:49;;;;;;;0.50;0.40;;;;;;;;;;5141112;27;20673;-60
2022/12/30 05:18:18;;;;;;;0.65;0.35;;;;;;;;;;5140262;27;20202;-60
2022/12/30 05:20:46;;;;;;;0.55;0.40;;;;;;;;;;5140789;27;20198;-60
2022/12/30 05:28:39;;;;;;;0.63;0.50;;;;;;;;;;5140114;27;20581;-60
2022/12/30 05:31:07;;;;;;;0.40;0.40;;;;;;;;;;5140732;27;20316;-60
2022/12/30 05:33:36;;;;;;;0.50;0.40;;;;;;;;;;5140500;27;20202;-60
2022/12/30 05:36:03;;;;;;;0.80;0.57;;;;;;;;;;5140629;27;20213;-60
2022/12/30 05:38:31;;;;;;;0.75;0.40;;;;;;;;;;5141116;27;20234;-60
2022/12/30 05:40:59;;;;;;;0.50;0.43;;;;;;;;;;5140829;27;20208;-60
2022/12/30 05:43:26;;;;;;;0.77;0.40;;;;;;;;;;5139803;27;20209;-60
2022/12/30 05:45:54;;;;;;;0.60;0.50;;;;;;;;;;5139841;27;20209;-60
2022/12/30 05:48:21;;;;;;;0.70;0.35;;;;;;;;;;5139822;27;20202;-60
2022/12/30 05:50:50;;;;;;;0.63;0.30;;;;;;;;;;5140108;27;20222;-60
2022/12/30 05:53:18;;;;;;;0.80;0.50;;;;;;;;;;5139567;27;20236;-60
2022/12/30 05:55:45;;;;;;;0.50;0.50;;;;;;;;;;5139961;27;20209;-60
2022/12/30 05:58:13;;;;;;;0.47;0.40;;;;;;;;;;5139602;27;20612;-60
2022/12/30 06:00:40;;;;;;;1.23;0.50;;;;;;;;;;5139560;27;20206;-60
2022/12/30 06:03:08;;;;;;;0.75;0.60;;;;;;;;;;5140012;27;20489;-60
2022/12/30 06:05:35;;;;;;;0.50;0.43;;;;;;;;;;5140475;27;20510;-60
2022/12/30 06:08:04;;;;;;;0.52;0.50;;;;;;;;;;5139473;27;20213;-60
2022/12/30 06:10:31;;;;;;;0.82;0.50;;;;;;;;;;5139456;27;20293;-60
2022/12/30 06:12:59;;;;;;;0.95;0.45;;;;;;;;;;5139612;27;20269;-60
2022/12/30 06:15:26;;;;;;;0.60;0.50;;;;;;;;;;5139447;27;20202;-60
2022/12/30 06:17:54;;;;;;;0.70;0.52;;;;;;;;;;5139343;27;20208;-60
2022/12/30 06:20:21;;;;;;;0.50;0.50;;;;;;;;;;5139691;27;20202;-60
2022/12/30 06:22:50;;;;;;;0.77;0.50;;;;;;;;;;5139702;27;20582;-60
2022/12/30 06:25:19;;;;;;;0.60;0.50;;;;;;;;;;5139891;27;20202;-60
2022/12/30 06:27:46;;;;;;;0.50;0.40;;;;;;;;;;5139432;27;20202;-60
2022/12/30 06:30:14;;;;;;;1.00;0.47;;;;;;;;;;5139309;27;20293;-60
2022/12/30 06:32:42;;;;;;;0.55;0.40;;;;;;;;;;5139143;27;20594;-60
2022/12/30 06:35:10;;;;;;;0.85;0.40;;;;;;;;;;5139649;27;20297;-60
2022/12/30 06:37:37;;;;;;;0.75;0.50;;;;;;;;;;5139546;27;20202;-60
2022/12/30 06:40:06;;;;;;;0.75;0.40;;;;;;;;;;5139799;27;20353;-60
2022/12/30 06:42:34;;;;;;;0.80;0.50;;;;;;;;;;5139240;27;20593;-60
2022/12/30 06:45:02;;;;;;;0.57;0.57;;;;;;;;;;5138875;27;20305;-60
2022/12/30 06:47:30;;;;;;;0.68;0.45;;;;;;;;;;5138634;27;20619;-60
2022/12/30 06:49:58;;;;;;;0.90;0.47;;;;;;;;;;5138856;27;20566;-60
2022/12/30 06:52:26;;;;;;;0.57;0.50;;;;;;;;;;5138749;27;20312;-60
2022/12/30 06:54:53;;;;;;;0.50;0.40;;;;;;;;;;5139314;27;20305;-60
2022/12/30 06:57:21;;;;;;;1.00;0.50;;;;;;;;;;5138937;27;20274;-60
2022/12/30 06:59:50;;;;;;;0.63;0.40;;;;;;;;;;5138827;27;20304;-60
2022/12/30 07:02:17;;;;;;;0.63;0.47;;;;;;;;;;5138365;27;20302;-60
2022/12/30 07:04:44;;;;;;;0.50;0.40;;;;;;;;;;5138774;27;20202;-60
2022/12/30 07:07:12;;;;;;;0.60;0.40;;;;;;;;;;5138649;27;20589;-60
2022/12/30 07:09:39;;;;;;;0.52;0.40;;;;;;;;;;5138936;27;20496;-60
2022/12/30 07:12:07;;;;;;;0.40;0.40;;;;;;;;;;5138523;27;20236;-60
2022/12/30 07:14:34;;;;;;;1.25;0.80;;;;;;;;;;5138686;27;20251;-60
2022/12/30 07:17:03;;;;;;;0.43;0.43;;;;;;;;;;5138871;27;20206;-60
2022/12/30 07:19:31;;;;;;;0.40;0.40;;;;;;;;;;5138390;27;20296;-60
2022/12/30 07:21:58;;;;;;;1.20;0.70;;;;;;;;;;5137859;27;20202;-60
2022/12/30 07:24:26;;;;;;;1.08;0.60;;;;;;;;;;5138777;27;20208;-60
2022/12/30 07:26:53;;;;;;;0.40;0.40;;;;;;;;;;5139088;27;20198;-60
2022/12/30 07:29:21;;;;;;;0.65;0.50;;;;;;;;;;5138816;27;20267;-60
2022/12/30 07:31:48;;;;;;;0.63;0.43;;;;;;;;;;5138496;27;20226;-60
2022/12/30 07:34:17;;;;;;;0.68;0.47;;;;;;;;;;5138371;27;20297;-60
2022/12/30 07:36:45;;;;;;;0.45;0.45;;;;;;;;;;5138485;27;20262;-60
2022/12/30 07:39:12;;;;;;;0.75;0.40;;;;;;;;;;5138695;27;20209;-60
2022/12/30 07:41:40;;;;;;;0.70;0.50;;;;;;;;;;5137495;27;20302;-60
2022/12/30 07:44:07;;;;;;;0.60;0.50;;;;;;;;;;5137776;27;20204;-60
2022/12/30 07:46:36;;;;;;;0.60;0.60;;;;;;;;;;5137423;27;20468;-60
2022/12/30 07:49:04;;;;;;;1.05;0.50;;;;;;;;;;5137226;27;20252;-60
2022/12/30 07:51:32;;;;;;;0.88;0.60;;;;;;;;;;5137331;27;20632;-60
2022/12/30 07:54:00;;;;;;;0.75;0.50;;;;;;;;;;5137437;27;20557;-60
2022/12/30 07:56:27;;;;;;;0.68;0.68;;;;;;;;;;5136829;27;20293;-60
2022/12/30 07:58:55;;;;;;;0.60;0.50;;;;;;;;;;5136790;27;20836;-60
2022/12/30 08:01:22;;;;;;;0.60;0.47;;;;;;;;;;5137125;27;20312;-60
2022/12/30 08:03:50;;;;;;;1.27;0.40;;;;;;;;;;5137446;27;20202;-60
2022/12/30 08:06:18;;;;;;;0.75;0.50;;;;;;;;;;5137396;27;20206;-60
2022/12/30 08:08:47;;;;;;;0.85;0.52;;;;;;;;;;5137439;27;20233;-60
2022/12/30 08:11:16;;;;;;;0.52;0.50;;;;;;;;;;5137333;27;20202;-60
2022/12/30 08:13:44;;;;;;;0.60;0.50;;;;;;;;;;5137439;27;20213;-60
2022/12/30 08:16:13;;;;;;;0.38;0.38;;;;;;;;;;5136929;28;20349;-60
2022/12/30 08:18:40;;;;;;;0.85;0.60;;;;;;;;;;5137309;28;20648;-60
2022/12/30 08:21:09;;;;;;;0.60;0.60;;;;;;;;;;5137400;28;20284;-60
2022/12/30 08:23:36;;;;;;;0.60;0.60;;;;;;;;;;5137216;28;20301;-60
2022/12/30 08:26:06;;;;;;;0.70;0.50;;;;;;;;;;5137293;28;20205;-60
2022/12/30 08:28:33;;;;;;;0.40;0.32;;;;;;;;;;5137656;28;20203;-60
2022/12/30 08:31:01;;;;;;;0.75;0.40;;;;;;;;;;5136653;28;20553;-61
2022/12/30 08:33:28;;;;;;;0.65;0.50;;;;;;;;;;5137354;28;20512;-60
2022/12/30 08:36:01;;;;;;;0.60;0.50;;;;;;;;;;5136902;28;20202;-60
2022/12/30 08:38:28;;;;;;;0.70;0.50;;;;;;;;;;5136522;28;20202;-61
2022/12/30 08:40:56;;;;;;;0.70;0.60;;;;;;;;;;5136982;28;20720;-61
2022/12/30 08:43:24;;;;;;;1.05;0.50;;;;;;;;;;5137110;28;20214;-60
2022/12/30 08:45:56;;;;;;;0.90;0.60;;;;;;;;;;5136845;28;20685;-60
2022/12/30 08:48:24;;;;;;;0.60;0.45;;;;;;;;;;5136968;28;20195;-60
2022/12/30 08:50:51;;;;;;;1.00;0.68;;;;;;;;;;5136758;28;20307;-60
2022/12/30 08:53:19;;;;;;;0.77;0.75;;;;;;;;;;5136052;28;20312;-60
2022/12/30 08:55:46;;;;;;;0.47;0.47;;;;;;;;;;5136124;28;20206;-60
2022/12/30 08:58:14;;;;;;;0.32;0.32;;;;;;;;;;5135840;28;20245;-60
2022/12/30 09:00:42;;;;;;;0.50;0.50;;;;;;;;;;5134308;28;20198;-60
2022/12/30 09:03:10;;;;;;;0.52;0.50;;;;;;;;;;5136486;28;20199;-60
2022/12/30 09:05:38;;;;;;;0.73;0.60;;;;;;;;;;5136620;28;20316;-60
2022/12/30 09:08:07;;;;;;;0.80;0.70;;;;;;;;;;5136034;28;20202;-60
2022/12/30 09:10:34;;;;;;;0.98;0.63;;;;;;;;;;5135667;28;20609;-60
2022/12/30 09:13:02;;;;;;;0.75;0.55;;;;;;;;;;5136450;28;20505;-60
2022/12/30 09:15:29;;;;;;;0.75;0.65;;;;;;;;;;5135084;28;20648;-60
2022/12/30 09:17:58;;;;;;;0.80;0.50;;;;;;;;;;5135469;27;20245;-60
2022/12/30 09:20:25;;;;;;;0.63;0.63;;;;;;;;;;5138649;27;20209;-60
2022/12/30 09:22:53;;;;;;;1.15;0.60;;;;;;;;;;5139415;27;20199;-60
2022/12/30 09:25:21;;;;;;;0.60;0.60;;;;;;;;;;5139811;27;20782;-60
2022/12/30 09:27:48;;;;;;;0.55;0.47;;;;;;;;;;5138799;27;20289;-60
2022/12/30 09:30:15;;;;;;;1.73;0.68;;;;;;;;;;5138787;27;20297;-60
2022/12/30 09:32:43;;;;;;;1.17;0.80;;;;;;;;;;5138730;27;20316;-60
2022/12/30 09:35:12;;;;;;;0.60;0.60;;;;;;;;;;5138979;27;20496;-60
2022/12/30 09:37:39;;;;;;;0.82;0.77;;;;;;;;;;5139141;27;20747;-60
2022/12/30 09:40:07;;;;;;;0.73;0.70;;;;;;;;;;5138674;27;20205;-60
2022/12/30 09:45:24;;;;;;;1.23;0.68;;;;;;;;;;5137237;27;20213;-60
2022/12/30 09:47:53;;;;;;;1.15;0.60;;;;;;;;;;5138632;27;20593;-60
2022/12/30 09:50:25;;;;;;;1.13;0.73;;;;;;;;;;5138933;27;20248;-60
2022/12/30 09:52:55;;;;;;;0.88;0.80;;;;;;;;;;5138781;27;20336;-60
2022/12/30 09:55:25;;;;;;;0.70;0.68;;;;;;;;;;5138210;27;20202;-60
2022/12/30 09:57:53;;;;;;;1.52;1.27;;;;;;;;;;5137864;27;20212;-60
2022/12/30 10:00:22;;;;;;;2.95;1.85;;;;;;;;;;5137968;27;20485;-60
2022/12/30 10:03:02;;;;;;;2.15;1.95;;;;;;;;;;5137557;27;20209;-60
2022/12/30 10:05:39;;;;;;;3.65;3.30;;;;;;;;;;5138836;27;20304;-60
2022/12/30 10:08:11;;;;;;;3.38;3.08;;;;;;;;;;5137708;27;20208;-60
2022/12/30 10:10:41;;;;;;;3.00;2.80;;;;;;;;;;5137324;27;20590;-60
2022/12/30 10:13:15;;;;;;;3.38;3.10;;;;;;;;;;5137305;27;20333;-60
2022/12/30 10:15:48;;;;;;;2.95;2.75;;;;;;;;;;5137727;27;20391;-60
2022/12/30 10:18:30;;;;;;;2.80;2.60;;;;;;;;;;5136999;27;20544;-60
2022/12/30 10:21:03;;;;;;;3.95;2.80;;;;;;;;;;5138127;27;20208;-60
2022/12/30 10:23:36;;;;;;;3.50;3.20;;;;;;;;;;5137409;27;20199;-60
2022/12/30 10:26:10;;;;;;;3.10;2.90;;;;;;;;;;5138057;27;20304;-60
2022/12/30 10:28:39;;;;;;;2.80;2.60;;;;;;;;;;5137267;27;20300;-60
2022/12/30 10:31:09;;;;;;;4.38;3.97;;;;;;;;;;5137357;27;20305;-60
2022/12/30 10:33:37;;;;;;;5.07;4.57;;;;;;;;;;5138408;27;20222;-60
2022/12/30 10:36:14;;;;;;;4.60;4.20;;;;;;;;;;5137306;27;20198;-60
2022/12/30 10:38:42;;;;;;;4.32;4.00;;;;;;;;;;5137207;27;20210;-60
2022/12/30 10:41:16;;;;;;;4.20;3.80;;;;;;;;;;5137646;27;20255;-60
2022/12/30 10:43:50;;;;;;;4.25;3.88;;;;;;;;;;5137213;27;20646;-60
2022/12/30 10:46:28;;;;;;;5.43;3.58;;;;;;;;;;5137502;27;20285;-60
2022/12/30 10:49:10;;;;;;;4.63;3.58;;;;;;;;;;5137653;27;20846;-60
2022/12/30 10:51:39;;;;;;;3.80;3.40;;;;;;;;;;5133550;27;20312;-60
2022/12/30 10:54:07;;;;;;;3.80;3.40;;;;;;;;;;5137220;27;20228;-60
2022/12/30 10:56:35;;;;;;;3.30;3.00;;;;;;;;;;5137893;27;20198;-60
2022/12/30 10:59:06;;;;;;;3.65;3.30;;;;;;;;;;5136862;27;20269;-60
2022/12/30 11:01:35;;;;;;;3.38;3.00;;;;;;;;;;5137234;27;20288;-60
2022/12/30 11:04:03;;;;;;;3.30;2.92;;;;;;;;;;5135797;27;20285;-60
2022/12/30 11:06:31;;;;;;;4.07;3.20;;;;;;;;;;5135867;27;20305;-60
2022/12/30 11:09:13;;;;;;;3.17;2.55;;;;;;;;;;5136632;27;20209;-60
2022/12/30 11:14:46;;;;;;;3.22;2.92;;;;;;;;;;5135187;27;20621;-60
2022/12/30 11:17:24;;;;;;;3.10;2.78;;;;;;;;;;5135665;27;20198;-60
2022/12/30 11:19:52;;;;;;;2.80;2.60;;;;;;;;;;5136043;27;20209;-60
2022/12/30 11:22:20;;;;;;;2.90;2.47;;;;;;;;;;5136004;27;20301;-60
2022/12/30 11:24:50;;;;;;;3.75;2.22;;;;;;;;;;5135667;27;20202;-60
2022/12/30 11:27:27;;;;;;;3.28;2.80;;;;;;;;;;5135276;27;20293;-60
2022/12/30 11:29:55;;;;;;;5.05;3.78;;;;;;;;;;5135717;27;20194;-60
2022/12/30 11:32:22;;;;;;;9.93;6.40;;;;;;;;;;5134662;27;20296;-60
2022/12/30 11:34:49;;;;;;;8.75;5.95;;;;;;;;;;5135226;27;20283;-60
2022/12/30 11:37:25;;;;;;;6.13;5.07;;;;;;;;;;5134298;27;20296;-60
2022/12/30 11:39:52;;;;;;;8.05;4.95;;;;;;;;;;5134606;27;20201;-60
2022/12/30 11:42:30;;;;;;;5.78;5.10;;;;;;;;;;5133092;27;20206;-60
2022/12/30 11:45:14;;;;;;;8.02;5.22;;;;;;;;;;5134932;27;20663;-60
2022/12/30 11:47:45;;;;;;;5.78;4.95;;;;;;;;;;5134649;27;20203;-60
2022/12/30 11:50:17;;;;;;;5.60;4.85;;;;;;;;;;5133990;27;20514;-60
2022/12/30 11:52:49;;;;;;;7.35;4.75;;;;;;;;;;5134318;27;20229;-60
2022/12/30 11:55:21;;;;;;;5.95;4.85;;;;;;;;;;5133946;27;20204;-60
2022/12/30 11:57:51;;;;;;;5.57;4.47;;;;;;;;;;5134771;27;20202;-60
2022/12/30 12:00:28;;;;;;;5.45;4.65;;;;;;;;;;5113201;28;20225;-60
2022/12/30 12:03:00;;;;;;;5.40;4.53;;;;;;;;;;5113208;28;20209;-60
2022/12/30 12:05:28;;;;;;;6.38;4.50;;;;;;;;;;5113309;28;20309;-60
2022/12/30 12:07:57;;;;;;;4.63;4.05;;;;;;;;;;5112857;28;20542;-60
2022/12/30 12:10:26;;;;;;;5.25;4.18;;;;;;;;;;5113797;28;20207;-60
2022/12/30 12:12:56;;;;;;;5.07;3.90;;;;;;;;;;5113626;28;20218;-60
2022/12/30 12:15:27;;;;;;;4.50;3.80;;;;;;;;;;5113655;28;20201;-60
2022/12/30 12:17:58;;;;;;;4.38;3.97;;;;;;;;;;5113201;28;20199;-60
2022/12/30 12:20:29;;;;;;;4.88;4.22;;;;;;;;;;5113215;28;20551;-60
2022/12/30 12:23:02;;;;;;;4.63;3.55;;;;;;;;;;5114979;28;20199;-60
2022/12/30 12:25:33;;;;;;;4.43;3.85;;;;;;;;;;5115120;28;20203;-60
2022/12/30 12:28:02;;;;;;;4.32;3.47;;;;;;;;;;5114264;28;20195;-60
2022/12/30 12:30:37;;;;;;;4.13;3.53;;;;;;;;;;5114072;28;20294;-60
2022/12/30 12:33:11;;;;;;;4.00;3.38;;;;;;;;;;5114948;28;20320;-60
2022/12/30 12:35:43;;;;;;;3.75;3.10;;;;;;;;;;5114302;28;20234;-60
2022/12/30 12:38:20;;;;;;;4.13;3.53;;;;;;;;;;5111968;28;20195;-60
2022/12/30 12:40:52;;;;;;;3.53;3.05;;;;;;;;;;5113307;28;20212;-60
2022/12/30 12:43:23;;;;;;;3.40;3.10;;;;;;;;;;5113682;28;20199;-60
2022/12/30 12:45:55;;;;;;;4.05;3.10;;;;;;;;;;5113965;28;20203;-60
2022/12/30 12:48:33;;;;;;;3.70;2.95;;;;;;;;;;5114202;28;20213;-60
2022/12/30 12:51:10;;;;;;;3.53;2.85;;;;;;;;;;5113607;28;20294;-60
2022/12/30 12:53:47;;;;;;;3.17;2.63;;;;;;;;;;5115111;28;20602;-60
2022/12/30 12:56:25;;;;;;;2.47;2.25;;;;;;;;;;5116834;28;20198;-60
2022/12/30 12:59:01;;;;;;;2.97;2.40;;;;;;;;;;5118607;27;20235;-60
2022/12/30 13:01:36;;;;;;;2.55;2.30;;;;;;;;;;5117623;28;20297;-60
2022/12/30 13:04:10;;;;;;;3.42;2.35;;;;;;;;;;5117539;28;20279;-60
2022/12/30 13:06:42;;;;;;;2.65;2.33;;;;;;;;;;5116966;28;20252;-60
2022/12/30 13:09:24;;;;;;;2.60;2.10;;;;;;;;;;5118118;28;20194;-60
2022/12/30 13:11:54;;;;;;;2.95;1.95;;;;;;;;;;5118075;28;20207;-60
2022/12/30 13:14:29;;;;;;;2.78;2.30;;;;;;;;;;5116587;28;20250;-60
2022/12/30 13:16:58;;;;;;;2.83;2.28;;;;;;;;;;5117277;28;20233;-60
2022/12/30 13:19:31;;;;;;;3.03;2.17;;;;;;;;;;5117316;28;20294;-60
2022/12/30 13:22:00;;;;;;;2.78;2.03;;;;;;;;;;5117835;28;20195;-60
2022/12/30 13:24:30;;;;;;;2.40;2.20;;;;;;;;;;5117563;28;20310;-60
2022/12/30 13:26:58;;;;;;;2.88;2.13;;;;;;;;;;5118205;28;20221;-60
2022/12/30 13:29:30;;;;;;;3.38;2.17;;;;;;;;;;5117569;28;20670;-60
2022/12/30 13:32:01;;;;;;;2.83;2.17;;;;;;;;;;5117717;28;20645;-60
2022/12/30 13:34:36;;;;;;;2.70;2.08;;;;;;;;;;5117451;28;20281;-60
2022/12/30 13:37:09;;;;;;;2.75;2.10;;;;;;;;;;5118005;28;20711;-60
2022/12/30 13:39:44;;;;;;;2.45;2.10;;;;;;;;;;5118078;28;20725;-60
2022/12/30 13:42:37;;;;;;;3.08;2.28;;;;;;;;;;5118123;28;20218;-60
2022/12/30 13:45:11;;;;;;;3.05;1.98;;;;;;;;;;5117541;28;20199;-60
2022/12/30 13:47:41;;;;;;;3.85;2.00;;;;;;;;;;5117014;28;20264;-60
2022/12/30 13:50:15;;;;;;;2.83;2.22;;;;;;;;;;5117201;28;20210;-60
2022/12/30 13:52:46;;;;;;;2.17;1.98;;;;;;;;;;5117004;28;20203;-60
2022/12/30 13:55:19;;;;;;;3.38;2.30;;;;;;;;;;5117127;28;20234;-60
2022/12/30 13:57:48;;;;;;;2.20;2.00;;;;;;;;;;5117071;28;20195;-60
2022/12/30 14:00:27;;;;;;;3.70;2.10;;;;;;;;;;5109952;28;20249;-60
2022/12/30 14:03:02;;;;;;;2.58;1.95;;;;;;;;;;5116561;28;20209;-60
2022/12/30 14:05:48;;;;;;;2.03;1.80;;;;;;;;;;5116492;28;20669;-60
2022/12/30 14:08:30;;;;;;;2.63;1.92;;;;;;;;;;5100886;28;20205;-60
2022/12/30 14:11:08;;;;;;;2.75;1.80;;;;;;;;;;5096508;28;20209;-60
2022/12/30 14:13:37;;;;;;;2.33;1.80;;;;;;;;;;5116505;28;20226;-60
2022/12/30 14:16:06;;;;;;;2.20;1.63;;;;;;;;;;5116318;28;20459;-60
2022/12/30 14:18:39;;;;;;;2.78;1.70;;;;;;;;;;5116592;28;20203;-60
2022/12/30 14:21:09;;;;;;;3.53;2.00;;;;;;;;;;5116416;28;20199;-60
2022/12/30 14:23:44;;;;;;;2.35;1.92;;;;;;;;;;5115953;28;20199;-60
2022/12/30 14:26:37;;;;;;;1.58;1.40;;;;;;;;;;5115179;28;20620;-60
2022/12/30 14:29:05;;;;;;;2.90;1.85;;;;;;;;;;5116024;28;20195;-60
2022/12/30 14:31:35;;;;;;;2.92;1.90;;;;;;;;;;5115056;28;20783;-60
2022/12/30 14:34:03;;;;;;;2.42;1.65;;;;;;;;;;5115728;28;20580;-60
2022/12/30 14:36:32;;;;;;;2.83;1.88;;;;;;;;;;5115731;28;20203;-60
2022/12/30 14:39:00;;;;;;;2.42;1.70;;;;;;;;;;5115946;28;20294;-60
2022/12/30 14:41:42;;;;;;;2.47;1.55;;;;;;;;;;5116526;28;20195;-60
2022/12/30 14:44:19;;;;;;;2.60;1.60;;;;;;;;;;5116280;28;20199;-60
2022/12/30 14:46:55;;;;;;;1.83;1.65;;;;;;;;;;5115195;28;20470;-60
2022/12/30 14:49:31;;;;;;;2.25;1.38;;;;;;;;;;5116044;28;20216;-60
2022/12/30 14:52:01;;;;;;;1.88;1.55;;;;;;;;;;5116036;28;20288;-60
2022/12/30 14:54:29;;;;;;;1.98;1.60;;;;;;;;;;5116409;28;20219;-60
2022/12/30 14:57:06;;;;;;;2.42;1.38;;;;;;;;;;5116203;28;20209;-60
2022/12/30 14:59:37;;;;;;;2.50;1.48;;;;;;;;;;5130208;27;20328;-60
2022/12/30 15:02:11;;;;;;;1.98;1.60;;;;;;;;;;5135843;27;20263;-60
2022/12/30 15:04:40;;;;;;;1.98;1.60;;;;;;;;;;5136069;27;20202;-60
2022/12/30 15:07:07;;;;;;;1.77;1.40;;;;;;;;;;5135277;27;20194;-60
2022/12/30 15:09:35;;;;;;;1.95;1.48;;;;;;;;;;5136283;27;20213;-60
2022/12/30 15:12:04;;;;;;;2.20;1.48;;;;;;;;;;5135232;27;20209;-60
2022/12/30 15:14:32;;;;;;;2.30;1.40;;;;;;;;;;5134735;27;20629;-60
2022/12/30 15:17:07;;;;;;;2.08;1.48;;;;;;;;;;5134456;27;20214;-60
2022/12/30 15:19:36;;;;;;;1.80;1.25;;;;;;;;;;5135336;27;20596;-60
2022/12/30 15:22:04;;;;;;;1.70;1.30;;;;;;;;;;5136199;27;20610;-60
2022/12/30 15:24:32;;;;;;;1.55;1.40;;;;;;;;;;5135693;27;20560;-61
2022/12/30 15:26:59;;;;;;;1.60;1.30;;;;;;;;;;5134733;27;20202;-60
2022/12/30 15:29:28;;;;;;;1.10;1.00;;;;;;;;;;5136121;27;20202;-60
2022/12/30 15:31:57;;;;;;;1.40;1.30;;;;;;;;;;5134967;27;20198;-60
2022/12/30 15:34:26;;;;;;;2.00;1.30;;;;;;;;;;5135680;27;20222;-60
2022/12/30 15:36:54;;;;;;;1.42;1.30;;;;;;;;;;5134593;27;20203;-60
2022/12/30 15:39:24;;;;;;;1.35;1.20;;;;;;;;;;5134057;27;20304;-60
2022/12/30 15:41:52;;;;;;;1.85;1.35;;;;;;;;;;5134973;27;20845;-60
2022/12/30 15:44:21;;;;;;;1.10;1.00;;;;;;;;;;5134315;27;20301;-60
2022/12/30 15:46:53;;;;;;;1.30;1.10;;;;;;;;;;5134161;27;20228;-60
2022/12/30 15:49:22;;;;;;;1.40;1.30;;;;;;;;;;5134052;27;20203;-60
2022/12/30 15:51:50;;;;;;;1.20;1.10;;;;;;;;;;5134344;27;20202;-60
2022/12/30 15:54:21;;;;;;;1.13;1.02;;;;;;;;;;5134476;27;20241;-60
2022/12/30 15:56:50;;;;;;;1.30;1.20;;;;;;;;;;5134388;27;20213;-60